createdAt,value
2018-04-02T00:02:18.280Z,13.83
2018-04-02T00:04:45.784Z,15.40
2018-04-02T00:07:13.325Z,13.63
2018-04-02T00:09:40.829Z,15.13
2018-04-02T00:12:08.335Z,14.67
2018-04-02T00:14:36.648Z,14.07
2018-04-02T00:17:04.144Z,16.13
2018-04-02T00:19:31.653Z,14.37
2018-04-02T00:21:59.429Z,14.70
2018-04-02T00:24:26.960Z,12.80
2018-04-02T00:26:55.224Z,13.80
2018-04-02T00:29:23.531Z,15.47
2018-04-02T00:31:51.076Z,13.27
2018-04-02T00:34:19.340Z,14.80
2018-04-02T00:36:47.659Z,14.97
2018-04-02T00:39:15.169Z,15.67
2018-04-02T00:41:42.678Z,14.73
2018-04-02T00:44:10.273Z,15.43
2018-04-02T00:46:37.768Z,14.97
2018-04-02T00:49:05.277Z,16.73
2018-04-02T00:51:32.817Z,17.30
2018-04-02T00:54:00.316Z,16.87
2018-04-02T00:56:27.820Z,18.90
2018-04-02T00:58:56.145Z,17.70
2018-04-02T01:01:23.644Z,17.43
2018-04-02T01:03:51.921Z,18.20
2018-04-02T01:06:20.276Z,19.20
2018-04-02T01:08:47.776Z,26.90
2018-04-02T01:11:16.047Z,28.57
2018-04-02T01:13:43.589Z,31.37
2018-04-02T01:16:11.092Z,30.30
2018-04-02T01:18:38.593Z,26.97
2018-04-02T01:21:06.145Z,33.37
2018-04-02T01:23:33.654Z,37.00
2018-04-02T01:26:01.919Z,31.77
2018-04-02T01:28:30.208Z,28.93
2018-04-02T01:30:57.714Z,23.00
2018-04-02T01:33:25.216Z,32.73
2018-04-02T01:35:53.524Z,27.83
2018-04-02T01:38:21.025Z,27.37
2018-04-02T01:40:48.520Z,38.37
2018-04-02T01:43:16.864Z,28.33
2018-04-02T01:45:44.365Z,28.60
2018-04-02T01:48:12.632Z,26.67
2018-04-02T01:50:40.985Z,28.73
2018-04-02T01:53:08.481Z,26.30
2018-04-02T01:55:36.000Z,30.70
2018-04-02T01:58:03.547Z,41.97
2018-04-02T02:00:31.916Z,37.33
2018-04-02T02:02:59.504Z,46.60
2018-04-02T02:05:27.033Z,50.63
2018-04-02T02:07:54.534Z,48.80
2018-04-02T02:10:22.047Z,48.40
2018-04-02T02:12:49.640Z,54.60
2018-04-02T02:15:17.148Z,58.07
2018-04-02T02:17:45.416Z,50.77
2018-04-02T02:20:13.740Z,57.90
2018-04-02T02:22:41.256Z,58.80
2018-04-02T02:25:08.980Z,68.53
2018-04-02T02:27:36.505Z,78.17
2018-04-02T02:30:04.025Z,69.47
2018-04-02T02:32:31.529Z,76.70
2018-04-02T02:34:59.133Z,65.03
2018-04-02T02:37:26.621Z,64.03
2018-04-02T02:39:54.124Z,66.90
2018-04-02T02:42:21.660Z,59.60
2018-04-02T02:44:49.161Z,53.70
2018-04-02T02:47:16.664Z,56.30
2018-04-02T02:49:44.981Z,47.97
2018-04-02T02:52:12.481Z,56.40
2018-04-02T02:54:39.992Z,51.23
2018-04-02T02:57:07.527Z,46.57
2018-04-02T02:59:35.832Z,60.27
2018-04-02T03:02:03.335Z,50.03
2018-04-02T03:04:30.872Z,54.27
2018-04-02T03:06:58.397Z,54.40
2018-04-02T03:09:25.900Z,73.13
2018-04-02T03:11:53.480Z,67.43
2018-04-02T03:14:20.989Z,52.20
2018-04-02T03:16:48.488Z,46.53
2018-04-02T03:19:16.060Z,46.40
2018-04-02T03:21:43.568Z,45.83
2018-04-02T03:24:11.072Z,50.90
2018-04-02T03:26:38.601Z,51.17
2018-04-02T03:29:06.102Z,46.33
2018-04-02T03:31:33.596Z,47.80
2018-04-02T03:34:01.172Z,38.87
2018-04-02T03:36:29.431Z,40.33
2018-04-02T03:38:56.956Z,33.13
2018-04-02T03:41:24.508Z,34.23
2018-04-02T03:43:52.012Z,25.47
2018-04-02T03:46:19.520Z,27.57
2018-04-02T03:48:47.044Z,25.77
2018-04-02T03:51:15.303Z,25.20
2018-04-02T03:53:42.864Z,21.70
2018-04-02T03:56:10.388Z,23.53
2018-04-02T03:58:37.888Z,23.07
2018-04-02T04:01:06.161Z,22.47
2018-04-02T04:03:33.735Z,21.63
2018-04-02T04:06:02.005Z,21.37
2018-04-02T04:08:30.281Z,21.10
2018-04-02T04:10:57.850Z,19.33
2018-04-02T04:13:26.131Z,18.93
2018-04-02T04:15:53.632Z,20.80
2018-04-02T04:18:21.166Z,18.70
2018-04-02T04:20:48.672Z,20.03
2018-04-02T04:23:16.180Z,20.97
2018-04-02T04:25:44.531Z,18.80
2018-04-02T04:28:12.025Z,17.30
2018-04-02T04:30:39.544Z,17.37
2018-04-02T04:33:07.088Z,20.47
2018-04-02T04:35:34.592Z,18.03
2018-04-02T04:38:02.093Z,18.60
2018-04-02T04:40:29.663Z,16.20
2018-04-02T04:42:57.144Z,19.00
2018-04-02T04:45:24.653Z,17.40
2018-04-02T04:47:52.188Z,18.90
2018-04-02T04:50:20.472Z,17.13
2018-04-02T04:52:47.976Z,17.47
2018-04-02T04:55:15.529Z,16.43
2018-04-02T04:57:43.813Z,18.07
2018-04-02T05:00:11.312Z,18.93
2018-04-02T05:02:38.883Z,17.13
2018-04-02T05:05:06.412Z,20.90
2018-04-02T05:07:33.916Z,22.67
2018-04-02T05:10:02.228Z,17.13
2018-04-02T05:12:29.727Z,16.77
2018-04-02T05:14:57.227Z,18.10
2018-04-02T05:17:24.792Z,20.33
2018-04-02T05:19:52.300Z,18.80
2018-04-02T05:22:19.804Z,17.50
2018-04-02T05:24:47.344Z,17.53
2018-04-02T05:27:14.848Z,17.43
2018-04-02T05:29:42.356Z,16.27
2018-04-02T05:32:09.936Z,18.37
2018-04-02T05:34:38.209Z,19.20
2018-04-02T05:37:06.492Z,19.10
2018-04-02T05:39:34.057Z,16.70
2018-04-02T05:42:01.561Z,22.20
2018-04-02T05:44:29.072Z,23.27
2018-04-02T05:46:57.378Z,25.13
2018-04-02T05:49:24.886Z,24.27
2018-04-02T05:51:52.394Z,22.60
2018-04-02T05:54:19.940Z,21.20
2018-04-02T05:56:48.218Z,31.47
2018-04-02T05:59:15.732Z,31.93
2018-04-02T06:01:43.281Z,34.43
2018-04-02T06:04:10.804Z,34.67
2018-04-02T06:06:38.308Z,39.37
2018-04-02T06:09:05.884Z,44.77
2018-04-02T06:11:33.381Z,29.43
2018-04-02T06:14:00.881Z,32.03
2018-04-02T06:16:28.405Z,26.90
2018-04-02T06:18:55.925Z,27.70
2018-04-02T06:21:23.447Z,23.07
2018-04-02T06:23:50.981Z,24.97
2018-04-02T06:26:18.488Z,20.80
2018-04-02T06:28:46.000Z,17.73
2018-04-02T06:31:13.616Z,15.47
2018-04-02T06:33:41.116Z,20.17
2018-04-02T06:36:08.616Z,17.47
2018-04-02T06:38:36.157Z,15.80
2018-04-02T06:41:03.652Z,14.70
2018-04-02T06:43:31.148Z,12.80
2018-04-02T06:45:58.693Z,15.13
2018-04-02T06:48:26.180Z,9.60
2018-04-02T06:50:53.685Z,11.87
2018-04-02T06:53:21.281Z,12.73
2018-04-02T06:55:48.795Z,13.93
2018-04-02T06:58:16.356Z,8.93
2018-04-02T07:00:43.924Z,9.03
2018-04-02T07:03:11.429Z,6.13
2018-04-02T07:05:38.932Z,8.60
2018-04-02T07:08:06.481Z,8.33
2018-04-02T07:10:33.980Z,8.47
2018-04-02T07:13:01.475Z,13.63
2018-04-02T07:15:29.780Z,10.10
2018-04-02T07:17:57.291Z,11.80
2018-04-02T07:20:24.788Z,8.13
2018-04-02T07:22:53.072Z,9.13
2018-04-02T07:25:20.592Z,10.53
2018-04-02T07:27:48.088Z,8.43
2018-04-02T07:30:15.634Z,8.37
2018-04-02T07:32:44.428Z,10.33
2018-04-02T07:35:11.920Z,9.37
2018-04-02T07:37:39.482Z,8.37
2018-04-02T07:40:06.972Z,7.53
2018-04-02T07:45:15.300Z,6.67
2018-04-02T07:47:42.796Z,6.80
2018-04-02T07:50:10.285Z,8.30
2018-04-02T07:52:37.823Z,6.67
2018-04-02T07:55:06.080Z,6.63
2018-04-02T07:57:33.652Z,6.87
2018-04-02T08:00:01.224Z,7.33
2018-04-02T08:02:28.719Z,10.03
2018-04-02T08:04:56.220Z,8.07
2018-04-02T08:07:23.780Z,9.10
2018-04-02T08:09:51.276Z,9.37
2018-04-02T08:12:19.552Z,9.70
2018-04-02T08:14:47.112Z,9.00
2018-04-02T08:17:15.364Z,7.10
2018-04-02T08:19:42.881Z,7.57
2018-04-02T08:22:11.207Z,7.67
2018-04-02T08:24:38.752Z,9.70
2018-04-02T08:27:06.250Z,7.30
2018-04-02T08:29:33.780Z,8.97
2018-04-02T08:32:02.855Z,11.17
2018-04-02T08:34:31.216Z,5.07
2018-04-02T08:36:58.793Z,7.50
2018-04-02T08:39:26.300Z,7.37
2018-04-02T08:41:54.588Z,6.93
2018-04-02T08:44:22.307Z,8.60
2018-04-02T08:46:49.802Z,7.83
2018-04-02T08:49:17.298Z,6.60
2018-04-02T08:51:44.831Z,7.73
2018-04-02T08:54:13.086Z,5.83
2018-04-02T08:56:40.584Z,7.57
2018-04-02T08:59:08.576Z,7.10
2018-04-02T09:01:36.081Z,5.53
2018-04-02T09:04:03.568Z,8.23
2018-04-02T09:06:31.141Z,6.67
2018-04-02T09:08:58.718Z,4.70
2018-04-02T09:11:26.229Z,5.67
2018-04-02T09:13:53.762Z,4.77
2018-04-02T09:16:21.248Z,5.30
2018-04-02T09:18:48.758Z,4.23
2018-04-02T09:21:16.284Z,5.17
2018-04-02T09:23:44.543Z,6.30
2018-04-02T09:26:12.036Z,4.07
2018-04-02T09:28:39.727Z,8.63
2018-04-02T09:31:07.278Z,5.57
2018-04-02T09:33:34.776Z,6.53
2018-04-02T09:36:03.223Z,5.60
2018-04-02T09:38:30.723Z,4.27
2018-04-02T09:40:58.232Z,4.73
2018-04-02T09:43:25.795Z,5.57
2018-04-02T09:45:53.349Z,5.47
2018-04-02T09:48:20.929Z,7.57
2018-04-02T09:50:48.568Z,7.60
2018-04-02T09:53:16.209Z,5.67
2018-04-02T09:55:44.508Z,4.67
2018-04-02T09:58:12.138Z,4.40
2018-04-02T10:00:39.655Z,5.10
2018-04-02T10:03:07.969Z,5.50
2018-04-02T10:05:35.508Z,4.37
2018-04-02T10:08:03.013Z,5.83
2018-04-02T10:10:31.354Z,4.87
2018-04-02T10:12:58.912Z,5.07
2018-04-02T10:15:27.992Z,3.77
2018-04-02T10:17:55.497Z,5.17
2018-04-02T10:20:23.162Z,4.37
2018-04-02T10:22:50.676Z,4.77
2018-04-02T10:25:18.172Z,4.70
2018-04-02T10:27:45.768Z,4.10
2018-04-02T10:30:14.028Z,3.93
2018-04-02T10:32:41.572Z,6.53
2018-04-02T10:35:09.794Z,4.17
2018-04-02T10:37:37.320Z,5.80
2018-04-02T10:40:04.811Z,7.37
2018-04-02T10:42:32.354Z,3.53
2018-04-02T10:44:59.877Z,3.20
2018-04-02T10:47:27.380Z,6.23
2018-04-02T10:49:55.720Z,5.13
2018-04-02T10:52:23.213Z,4.50
2018-04-02T10:54:50.705Z,5.17
2018-04-02T10:57:18.284Z,4.07
2018-04-02T10:59:45.816Z,5.33
2018-04-02T11:02:13.291Z,4.17
2018-04-02T11:04:40.817Z,4.40
2018-04-02T11:07:09.296Z,3.53
2018-04-02T11:09:37.580Z,6.33
2018-04-02T11:12:05.932Z,4.00
2018-04-02T11:14:33.462Z,4.03
2018-04-02T11:17:00.980Z,5.67
2018-04-02T11:19:29.321Z,5.83
2018-04-02T11:21:56.842Z,4.00
2018-04-02T11:24:24.352Z,4.43
2018-04-02T11:26:51.876Z,4.73
2018-04-02T11:29:20.202Z,3.57
2018-04-02T11:31:47.720Z,3.70
2018-04-02T11:34:15.361Z,4.20
2018-04-02T11:36:42.856Z,3.77
2018-04-02T11:39:10.341Z,3.80
2018-04-02T11:41:37.885Z,4.30
2018-04-02T11:44:05.396Z,4.00
2018-04-02T11:46:35.817Z,4.13
2018-04-02T11:49:03.394Z,5.03
2018-04-02T11:51:30.929Z,3.73
2018-04-02T11:53:59.199Z,4.90
2018-04-02T11:56:26.773Z,5.03
2018-04-02T11:58:55.059Z,4.63
2018-04-02T12:01:23.351Z,4.33
2018-04-02T12:03:50.909Z,3.73
2018-04-02T12:06:18.414Z,5.20
2018-04-02T12:08:45.969Z,5.80
2018-04-02T12:11:13.508Z,4.17
2018-04-02T12:13:41.013Z,5.20
2018-04-02T12:16:08.501Z,4.20
2018-04-02T12:18:36.805Z,3.70
2018-04-02T12:21:04.305Z,4.73
2018-04-02T12:23:31.829Z,4.37
2018-04-02T12:25:59.368Z,3.90
2018-04-02T12:28:26.864Z,5.73
2018-04-02T12:30:54.369Z,5.73
2018-04-02T12:33:21.932Z,5.77
2018-04-02T12:35:49.439Z,5.00
2018-04-02T12:38:17.024Z,6.13
2018-04-02T12:40:44.576Z,4.63
2018-04-02T12:43:12.165Z,5.03
2018-04-02T12:45:39.653Z,4.87
2018-04-02T12:48:07.227Z,3.80
2018-04-02T12:50:34.831Z,5.77
2018-04-02T12:53:03.494Z,4.63
2018-04-02T12:55:31.099Z,4.77
2018-04-02T12:57:58.709Z,3.90
2018-04-02T13:00:26.210Z,5.80
2018-04-02T13:02:53.788Z,5.33
2018-04-02T13:05:21.371Z,4.23
2018-04-02T13:07:49.008Z,6.03
2018-04-02T13:10:17.316Z,4.47
2018-04-02T13:12:44.873Z,6.20
2018-04-02T13:15:12.441Z,5.37
2018-04-02T13:17:40.014Z,5.00
2018-04-02T13:20:07.552Z,5.73
2018-04-02T13:22:35.836Z,4.77
2018-04-02T13:25:03.436Z,4.57
2018-04-02T13:27:30.941Z,4.70
2018-04-02T13:29:59.283Z,4.23
2018-04-02T13:32:26.839Z,4.47
2018-04-02T13:34:54.385Z,4.07
2018-04-02T13:37:21.880Z,4.67
2018-04-02T13:39:49.427Z,4.50
2018-04-02T13:42:16.998Z,4.20
2018-04-02T13:44:44.593Z,4.80
2018-04-02T13:47:12.165Z,5.00
2018-04-02T13:49:39.706Z,4.07
2018-04-02T13:52:07.221Z,3.80
2018-04-02T13:54:34.777Z,4.93
2018-04-02T13:57:02.293Z,4.80
2018-04-02T13:59:29.808Z,4.43
2018-04-02T14:01:57.420Z,3.40
2018-04-02T14:04:24.936Z,3.10
2018-04-02T14:06:52.455Z,4.97
2018-04-02T14:09:20.052Z,4.30
2018-04-02T14:11:47.581Z,3.20
2018-04-02T14:14:15.113Z,3.93
2018-04-02T14:16:43.478Z,4.57
2018-04-02T14:19:11.715Z,4.10
2018-04-02T14:21:39.230Z,4.13
2018-04-02T14:24:06.773Z,3.43
2018-04-02T14:26:34.264Z,4.53
2018-04-02T14:29:02.518Z,3.10
2018-04-02T14:31:30.112Z,3.43
2018-04-02T14:33:58.409Z,4.50
2018-04-02T14:36:26.736Z,3.47
2018-04-02T14:38:54.577Z,3.13
2018-04-02T14:41:22.068Z,3.20
2018-04-02T14:43:49.560Z,3.77
2018-04-02T14:46:17.104Z,3.43
2018-04-02T14:48:44.668Z,5.03
2018-04-02T14:51:12.940Z,4.30
2018-04-02T14:53:41.284Z,5.03
2018-04-02T14:56:08.808Z,3.73
2018-04-02T14:58:36.320Z,4.67
2018-04-02T15:01:03.900Z,3.43
2018-04-02T15:03:31.437Z,3.87
2018-04-02T15:05:58.966Z,3.60
2018-04-02T15:08:26.533Z,3.63
2018-04-02T15:10:54.044Z,5.57
2018-04-02T15:13:21.616Z,5.33
2018-04-02T15:15:49.193Z,6.43
2018-04-02T15:18:16.691Z,5.40
2018-04-02T15:20:44.241Z,4.30
2018-04-02T15:23:11.813Z,4.10
2018-04-02T15:25:39.395Z,3.73
2018-04-02T15:28:06.914Z,4.20
2018-04-02T15:30:35.279Z,5.20
2018-04-02T15:33:02.839Z,3.33
2018-04-02T15:35:30.568Z,3.57
2018-04-02T15:37:58.148Z,3.30
2018-04-02T15:40:26.436Z,3.67
2018-04-02T15:42:54.005Z,4.07
2018-04-02T15:45:21.596Z,4.00
2018-04-02T15:47:49.153Z,4.37
2018-04-02T15:50:16.696Z,5.23
2018-04-02T15:52:44.224Z,3.63
2018-04-02T15:55:11.736Z,5.57
2018-04-02T15:57:39.241Z,8.63
2018-04-02T16:00:06.786Z,6.20
2018-04-02T16:02:34.279Z,6.03
2018-04-02T16:05:01.780Z,3.03
2018-04-02T16:07:29.345Z,4.10
2018-04-02T16:09:56.853Z,3.20
2018-04-02T16:12:24.363Z,4.20
2018-04-02T16:14:51.897Z,3.10
2018-04-02T16:17:19.391Z,3.37
2018-04-02T16:19:46.920Z,4.00
2018-04-02T16:22:14.480Z,3.70
2018-04-02T16:24:41.996Z,5.03
2018-04-02T16:27:09.898Z,2.87
2018-04-02T16:29:38.226Z,3.43
2018-04-02T16:32:05.725Z,4.93
2018-04-02T16:34:34.013Z,3.13
2018-04-02T16:37:01.586Z,4.27
2018-04-02T16:39:29.096Z,3.70
2018-04-02T16:41:56.612Z,3.47
2018-04-02T16:44:24.144Z,3.60
2018-04-02T16:46:51.643Z,4.63
2018-04-02T16:49:19.921Z,5.47
2018-04-02T16:51:47.452Z,3.40
2018-04-02T16:54:14.944Z,3.43
2018-04-02T16:56:43.057Z,4.47
2018-04-02T16:59:10.674Z,3.43
2018-04-02T17:01:38.164Z,8.73
2018-04-02T17:04:05.659Z,2.87
2018-04-02T17:06:33.216Z,3.53
2018-04-02T17:09:00.714Z,14.13
2018-04-02T17:11:28.208Z,5.23
2018-04-02T17:13:55.735Z,3.70
2018-04-02T17:16:23.232Z,3.37
2018-04-02T17:18:50.740Z,2.63
2018-04-02T17:27:05.665Z,2.93
2018-04-02T17:29:33.156Z,4.80
2018-04-02T17:32:00.653Z,5.40
2018-04-02T17:34:28.968Z,3.47
2018-04-02T17:36:56.465Z,2.83
2018-04-02T17:39:23.955Z,3.07
2018-04-02T17:41:52.303Z,2.33
2018-04-02T17:44:19.826Z,2.70
2018-04-02T17:46:47.332Z,6.17
2018-04-02T17:49:14.856Z,4.40
2018-04-02T17:51:42.363Z,2.80
2018-04-02T17:54:09.872Z,4.50
2018-04-02T17:56:37.463Z,5.07
2018-04-02T17:59:04.953Z,3.70
2018-04-02T18:01:32.445Z,4.80
2018-04-02T18:03:59.990Z,4.37
2018-04-02T18:06:27.487Z,4.47
2018-04-02T18:08:54.981Z,4.47
2018-04-02T18:11:22.552Z,3.83
2018-04-02T18:13:50.813Z,3.97
2018-04-02T18:16:18.303Z,5.60
2018-04-02T18:18:46.581Z,3.83
2018-04-02T18:21:14.848Z,3.37
2018-04-02T18:23:42.340Z,5.33
2018-04-02T18:26:09.876Z,3.37
2018-04-02T18:28:37.376Z,5.30
2018-04-02T18:31:04.870Z,3.63
2018-04-02T18:33:32.400Z,2.57
2018-04-02T18:35:59.941Z,3.63
2018-04-02T18:38:27.436Z,3.13
2018-04-02T18:40:54.956Z,3.30
2018-04-02T18:43:22.452Z,3.60
2018-04-02T18:45:49.940Z,3.30
2018-04-02T18:48:17.480Z,2.57
2018-04-02T18:50:45.002Z,3.63
2018-04-02T18:53:13.243Z,3.27
2018-04-02T18:55:40.768Z,4.73
2018-04-02T18:58:08.269Z,3.17
2018-04-02T19:00:36.533Z,3.77
2018-04-02T19:03:04.098Z,2.73
2018-04-02T19:05:31.605Z,3.43
2018-04-02T19:07:59.103Z,3.57
2018-04-02T19:10:26.700Z,3.90
2018-04-02T19:12:54.380Z,2.60
2018-04-02T19:15:21.876Z,5.53
2018-04-02T19:17:49.403Z,4.33
2018-04-02T19:20:16.906Z,3.67
2018-04-02T19:22:44.412Z,5.87
2018-04-02T19:25:12.709Z,4.30
2018-04-02T19:27:40.221Z,4.37
2018-04-02T19:30:07.766Z,3.37
2018-04-02T19:32:35.329Z,3.63
2018-04-02T19:35:02.832Z,4.07
2018-04-02T19:37:31.134Z,3.93
2018-04-02T19:39:58.652Z,3.97
2018-04-02T19:42:26.144Z,4.90
2018-04-02T19:44:53.652Z,3.83
2018-04-02T19:47:21.183Z,4.27
2018-04-02T19:49:48.696Z,4.67
2018-04-02T19:52:16.196Z,4.70
2018-04-02T19:54:43.775Z,6.30
2018-04-02T19:57:11.268Z,4.47
2018-04-02T19:59:38.762Z,7.50
2018-04-02T20:02:06.313Z,6.80
2018-04-02T20:04:33.815Z,3.80
2018-04-02T20:07:01.308Z,4.10
2018-04-02T20:09:28.836Z,4.67
2018-04-02T20:11:56.337Z,5.33
2018-04-02T20:14:23.841Z,5.17
2018-04-02T20:16:51.397Z,4.00
2018-04-02T20:19:18.888Z,4.00
2018-04-02T20:21:46.392Z,3.63
2018-04-02T20:24:14.701Z,4.37
2018-04-02T20:26:42.200Z,3.37
2018-04-02T20:29:09.713Z,4.53
2018-04-02T20:31:37.320Z,4.33
2018-04-02T20:34:10.127Z,3.93
2018-04-02T20:36:38.511Z,4.57
2018-04-02T20:39:05.986Z,6.63
2018-04-02T20:41:33.481Z,5.27
2018-04-02T20:44:01.028Z,6.10
2018-04-02T20:46:28.525Z,5.90
2018-04-02T20:48:56.044Z,4.33
2018-04-02T20:51:23.577Z,5.70
2018-04-02T20:53:51.103Z,7.30
2018-04-02T20:56:18.597Z,5.47
2018-04-02T20:58:46.120Z,8.90
2018-04-02T21:01:13.621Z,5.70
2018-04-02T21:03:41.117Z,8.90
2018-04-02T21:06:08.652Z,6.97
2018-04-02T21:08:36.156Z,6.47
2018-04-02T21:11:04.753Z,5.33
2018-04-02T21:13:32.313Z,3.60
2018-04-02T21:15:59.982Z,3.37
2018-04-02T21:18:27.522Z,4.00
2018-04-02T21:20:55.176Z,4.20
2018-04-02T21:23:23.437Z,5.83
2018-04-02T21:25:50.939Z,3.97
2018-04-02T21:28:18.468Z,5.40
2018-04-02T21:30:45.997Z,3.70
2018-04-02T21:33:13.492Z,3.37
2018-04-02T21:35:41.042Z,4.33
2018-04-02T21:38:08.605Z,4.00
2018-04-02T21:40:36.116Z,4.47
2018-04-02T21:43:04.460Z,4.47
2018-04-02T21:45:31.970Z,3.70
2018-04-02T21:48:00.232Z,5.20
2018-04-02T21:50:27.785Z,3.60
2018-04-02T21:52:55.297Z,3.33
2018-04-02T21:55:22.804Z,4.07
2018-04-02T21:57:50.328Z,5.07
2018-04-02T22:00:17.831Z,3.70
2018-04-02T22:02:45.328Z,4.53
2018-04-02T22:05:12.884Z,4.00
2018-04-02T22:07:40.393Z,5.03
2018-04-02T22:10:07.884Z,4.67
2018-04-02T22:12:38.196Z,5.63
2018-04-02T22:15:06.111Z,4.10
2018-04-02T22:17:33.609Z,5.70
2018-04-02T22:20:01.141Z,5.37
2018-04-02T22:22:28.636Z,6.83
2018-04-02T22:24:56.125Z,6.43
2018-04-02T22:27:23.656Z,5.53
2018-04-02T22:29:51.160Z,8.00
2018-04-02T22:32:18.653Z,5.70
2018-04-02T22:34:46.200Z,7.53
2018-04-02T22:37:13.693Z,6.93
2018-04-02T22:39:41.249Z,5.77
2018-04-02T22:42:08.764Z,6.17
2018-04-02T22:44:36.259Z,9.33
2018-04-02T22:47:03.764Z,7.10
2018-04-02T22:49:31.279Z,7.90
2018-04-02T22:51:58.780Z,8.80
2018-04-02T22:54:26.476Z,7.30
2018-04-02T22:56:54.065Z,11.87
2018-04-02T22:59:22.322Z,9.07
2018-04-02T23:01:49.816Z,7.23
2018-04-02T23:04:17.356Z,9.13
2018-04-02T23:06:45.611Z,8.67
2018-04-02T23:09:13.144Z,10.40
2018-04-02T23:11:40.650Z,8.77
2018-04-02T23:14:08.918Z,10.57
2018-04-02T23:16:36.504Z,10.50
2018-04-02T23:19:04.001Z,10.97
2018-04-02T23:21:31.493Z,9.53
2018-04-02T23:23:59.040Z,18.10
2018-04-02T23:26:26.537Z,12.77
2018-04-02T23:28:54.041Z,10.27
2018-04-02T23:31:21.664Z,15.63
2018-04-02T23:33:49.169Z,13.33
2018-04-02T23:36:16.663Z,11.90
2018-04-02T23:38:44.200Z,11.03
2018-04-02T23:41:12.459Z,17.90
2018-04-02T23:43:39.962Z,12.87
2018-04-02T23:46:07.523Z,14.70
2018-04-02T23:48:35.031Z,11.57
2018-04-02T23:51:02.528Z,15.43
2018-04-02T23:53:30.856Z,14.80
2018-04-02T23:55:58.351Z,14.03
2018-04-02T23:58:26.645Z,15.70
